Terminal Aerodrome Forecast
Issued by NWS Wakefield, VA

Current Version | Previous Version | Text Only | Print | Product List | Glossary On
Versions: 1 2 3 4 5 6 7 8 9 10 11 12 13 14 15 16 17 18 19 20 21 22 23 24 25 26 27 28 29
083
FTUS41 KAKQ 172340
TAFORF
TAF
KORF 172340Z 1800/1824 01014G22KT 2SM -SN BR SCT009 OVC015
      TEMPO 1800/1803 3/4SM -SN BR VV009
     FM180400 01016G25KT 4SM -SN BR OVC015
     FM180600 36017G26KT P6SM OVC020
     FM180800 36015G23KT P6SM BKN035
     FM181200 34012G19KT P6SM FEW060
     FM181800 27011KT P6SM SKC=

USA.gov is the U.S. government's official web portal to all federal, state and local government web resources and services.